Time;durP1;ratioP1;P1;durP2;ratioP2;P2;SDS_P1;SDS_P2;PMS_P1;PMS_P2;Temp;Humidity;BMP_temperature;BMP_pressure;BME280_temperature;BME280_humidity;BME280_pressure;Samples;Min_cycle;Max_cycle;Signal;HPM_P1;HPM_P2
2023/07/18 00:01:52;;;;;;;;;;;;;;;;;;5056075;28;19927;-74
2023/07/18 00:04:38;;;;;;;;;;;;;;;;;;5055872;28;19920;-75
2023/07/18 00:07:25;;;;;;;;;;;;;;;;;;5054201;28;19924;-75
2023/07/18 00:10:11;;;;;;;;;;;;;;;;;;5066230;28;19920;-76
2023/07/18 00:12:58;;;;;;;;;;;;;;;;;;5057965;28;19965;-75
2023/07/18 00:15:46;;;;;;;;;;;;;;;;;;5065034;28;19920;-75
2023/07/18 00:18:32;;;;;;;;;;;;;;;;;;5057744;28;20378;-76
2023/07/18 00:21:19;;;;;;;;;;;;;;;;;;5061803;28;19920;-75
2023/07/18 00:24:06;;;;;;;;;;;;;;;;;;5062339;28;19924;-75
2023/07/18 00:26:54;;;;;;;;;;;;;;;;;;5041796;28;19933;-75
2023/07/18 00:29:41;;;;;;;;;;;;;;;;;;5042137;28;19927;-75
2023/07/18 00:32:27;;;;;;;;;;;;;;;;;;5034650;28;19953;-74
2023/07/18 00:35:14;;;;;;;;;;;;;;;;;;5034046;28;19918;-75
2023/07/18 00:38:01;;;;;;;;;;;;;;;;;;5026318;28;19928;-74
2023/07/18 00:40:47;;;;;;;;;;;;;;;;;;5051326;28;19931;-75
2023/07/18 00:43:33;;;;;;;;;;;;;;;;;;5036824;28;20448;-74
2023/07/18 00:46:21;;;;;;;;;;;;;;;;;;5040634;28;19936;-75
2023/07/18 00:49:08;;;;;;;;;;;;;;;;;;5040155;28;19920;-74
2023/07/18 00:51:54;;;;;;;;;;;;;;;;;;5032966;28;20303;-74
2023/07/18 00:54:41;;;;;;;;;;;;;;;;;;5028707;28;19920;-74
2023/07/18 00:57:28;;;;;;;;;;;;;;;;;;5039680;28;19921;-74
2023/07/18 01:00:14;;;;;;;;;;;;;;;;;;5041125;28;20449;-75
2023/07/18 01:03:01;;;;;;;;;;;;;;;;;;5043010;28;19921;-75
2023/07/18 01:05:47;;;;;;;;;;;;;;;;;;5021554;28;20697;-75
2023/07/18 01:08:34;;;;;;;;;;;;;;;;;;5041764;28;19917;-75
2023/07/18 01:11:21;;;;;;;;;;;;;;;;;;5042483;28;20355;-74
2023/07/18 01:14:09;;;;;;;;;;;;;;;;;;5037153;28;19921;-73
2023/07/18 01:16:56;;;;;;;;;;;;;;;;;;5029356;28;19921;-73
2023/07/18 01:19:42;;;;;;;;;;;;;;;;;;5017381;28;20285;-73
2023/07/18 01:22:29;;;;;;;;;;;;;;;;;;5039286;28;19928;-74
2023/07/18 01:25:19;;;;;;;;;;;;;;;;;;5033865;28;19921;-74
2023/07/18 01:28:06;;;;;;;;;;;;;;;;;;5051901;28;19935;-73
2023/07/18 01:30:52;;;;;;;;;;;;;;;;;;5054236;28;19931;-75
2023/07/18 01:33:42;;;;;;;;;;;;;;;;;;5066499;28;19916;-74
2023/07/18 01:36:29;;;;;;;;;;;;;;;;;;5073481;28;19916;-75
2023/07/18 01:39:16;;;;;;;;;;;;;;;;;;5080154;28;19916;-75
2023/07/18 01:42:02;;;;;;;;;;;;;;;;;;5060646;28;19920;-74
2023/07/18 01:44:49;;;;;;;;;;;;;;;;;;5046408;28;19916;-74
2023/07/18 01:47:36;;;;;;;;;;;;;;;;;;5061807;28;19935;-74
2023/07/18 01:50:22;;;;;;;;;;;;;;;;;;5048870;28;21622;-74
2023/07/18 01:53:10;;;;;;;;;;;;;;;;;;5058403;28;19917;-74
2023/07/18 01:55:57;;;;;;;;;;;;;;;;;;5049778;28;20372;-74
2023/07/18 01:58:43;;;;;;;;;;;;;;;;;;5046637;28;19921;-74
2023/07/18 02:01:30;;;;;;;;;;;;;;;;;;5056421;28;20315;-74
2023/07/18 02:04:16;;;;;;;;;;;;;;;;;;5059775;28;19923;-75
2023/07/18 02:07:03;;;;;;;;;;;;;;;;;;5060640;28;19928;-74
2023/07/18 02:09:49;;;;;;;;;;;;;;;;;;5052632;28;19917;-75
2023/07/18 02:12:36;;;;;;;;;;;;;;;;;;5058785;28;19925;-75
2023/07/18 02:15:22;;;;;;;;;;;;;;;;;;5057944;28;20817;-75
2023/07/18 02:18:09;;;;;;;;;;;;;;;;;;5063202;28;19929;-73
2023/07/18 02:20:55;;;;;;;;;;;;;;;;;;5056205;28;19944;-73
2023/07/18 02:23:42;;;;;;;;;;;;;;;;;;5044367;28;19917;-73
2023/07/18 02:26:29;;;;;;;;;;;;;;;;;;5057379;28;19943;-74
2023/07/18 02:29:15;;;;;;;;;;;;;;;;;;5065910;28;20388;-74
2023/07/18 02:32:02;;;;;;;;;;;;;;;;;;5059201;28;20368;-74
2023/07/18 02:34:48;;;;;;;;;;;;;;;;;;5063278;28;19918;-74
2023/07/18 02:37:35;;;;;;;;;;;;;;;;;;5062345;28;19921;-74
2023/07/18 02:40:21;;;;;;;;;;;;;;;;;;5060083;28;19916;-74
2023/07/18 02:43:08;;;;;;;;;;;;;;;;;;5064656;28;19943;-74
2023/07/18 02:45:55;;;;;;;;;;;;;;;;;;5065461;28;20545;-74
2023/07/18 02:48:41;;;;;;;;;;;;;;;;;;5067938;28;19920;-74
2023/07/18 02:51:28;;;;;;;;;;;;;;;;;;5065886;28;19916;-74
2023/07/18 02:54:14;;;;;;;;;;;;;;;;;;5046963;28;19913;-74
2023/07/18 02:57:01;;;;;;;;;;;;;;;;;;5061757;28;19927;-73
2023/07/18 02:59:47;;;;;;;;;;;;;;;;;;5063702;28;19917;-73
2023/07/18 03:02:34;;;;;;;;;;;;;;;;;;5059577;28;19920;-74
2023/07/18 03:05:22;;;;;;;;;;;;;;;;;;5063289;28;19921;-74
2023/07/18 03:08:09;;;;;;;;;;;;;;;;;;5052039;28;20388;-74
2023/07/18 03:10:55;;;;;;;;;;;;;;;;;;5068122;28;19920;-74
2023/07/18 03:13:42;;;;;;;;;;;;;;;;;;5056042;28;19920;-74
2023/07/18 03:16:28;;;;;;;;;;;;;;;;;;5059145;28;20585;-73
2023/07/18 03:19:15;;;;;;;;;;;;;;;;;;5063744;28;19917;-74
2023/07/18 03:22:01;;;;;;;;;;;;;;;;;;5064200;28;20398;-73
2023/07/18 03:24:48;;;;;;;;;;;;;;;;;;5073123;28;19916;-74
2023/07/18 03:27:34;;;;;;;;;;;;;;;;;;5058406;28;19928;-74
2023/07/18 03:30:21;;;;;;;;;;;;;;;;;;5050309;28;19991;-74
2023/07/18 03:33:07;;;;;;;;;;;;;;;;;;5051447;28;19925;-74
2023/07/18 03:35:54;;;;;;;;;;;;;;;;;;5047972;28;19928;-74
2023/07/18 03:38:40;;;;;;;;;;;;;;;;;;5032199;28;19950;-74
2023/07/18 03:41:27;;;;;;;;;;;;;;;;;;5040504;28;20389;-74
2023/07/18 03:44:13;;;;;;;;;;;;;;;;;;5044409;28;19937;-75
2023/07/18 03:47:00;;;;;;;;;;;;;;;;;;5037932;28;19929;-74
2023/07/18 03:49:46;;;;;;;;;;;;;;;;;;5038061;28;19928;-73
2023/07/18 03:52:33;;;;;;;;;;;;;;;;;;5041386;28;20031;-74
2023/07/18 03:55:19;;;;;;;;;;;;;;;;;;5046226;28;19925;-75
2023/07/18 03:58:06;;;;;;;;;;;;;;;;;;5047213;28;20432;-74
2023/07/18 04:00:52;;;;;;;;;;;;;;;;;;5035935;28;19917;-74
2023/07/18 04:03:39;;;;;;;;;;;;;;;;;;5043286;28;19921;-75
2023/07/18 04:06:25;;;;;;;;;;;;;;;;;;5030135;28;21131;-75
2023/07/18 04:09:12;;;;;;;;;;;;;;;;;;5041576;28;19925;-76
2023/07/18 04:11:58;;;;;;;;;;;;;;;;;;5015477;28;19932;-74
2023/07/18 04:14:45;;;;;;;;;;;;;;;;;;5020930;28;19921;-75
2023/07/18 04:17:31;;;;;;;;;;;;;;;;;;5027578;28;19924;-75
2023/07/18 04:20:19;;;;;;;;;;;;;;;;;;5044464;28;19921;-75
2023/07/18 04:23:06;;;;;;;;;;;;;;;;;;5001182;28;19925;-75
2023/07/18 04:25:52;;;;;;;;;;;;;;;;;;5051823;28;20401;-75
2023/07/18 04:28:39;;;;;;;;;;;;;;;;;;5061564;28;19928;-75
2023/07/18 04:31:25;;;;;;;;;;;;;;;;;;5057596;28;20407;-75
2023/07/18 04:34:12;;;;;;;;;;;;;;;;;;5061684;28;19920;-76
2023/07/18 04:36:59;;;;;;;;;;;;;;;;;;5061503;28;19921;-75
2023/07/18 04:39:45;;;;;;;;;;;;;;;;;;5060175;28;19981;-75
2023/07/18 04:42:32;;;;;;;;;;;;;;;;;;5062084;28;19917;-75
2023/07/18 04:45:19;;;;;;;;;;;;;;;;;;5075961;28;19925;-75
2023/07/18 04:48:05;;;;;;;;;;;;;;;;;;5059375;28;20336;-74
2023/07/18 04:50:52;;;;;;;;;;;;;;;;;;5054102;28;19921;-74
2023/07/18 04:53:38;;;;;;;;;;;;;;;;;;5053664;28;19921;-74
2023/07/18 04:56:25;;;;;;;;;;;;;;;;;;5060863;28;19928;-75
2023/07/18 04:59:11;;;;;;;;;;;;;;;;;;5057812;28;19924;-77
2023/07/18 05:01:58;;;;;;;;;;;;;;;;;;5061204;28;20257;-75
2023/07/18 05:04:44;;;;;;;;;;;;;;;;;;5059399;28;19920;-75
2023/07/18 05:07:31;;;;;;;;;;;;;;;;;;5058346;28;19939;-75
2023/07/18 05:10:17;;;;;;;;;;;;;;;;;;5053731;28;19917;-75
2023/07/18 05:13:04;;;;;;;;;;;;;;;;;;5060306;28;19924;-75
2023/07/18 05:15:50;;;;;;;;;;;;;;;;;;5059407;28;20427;-74
2023/07/18 05:18:37;;;;;;;;;;;;;;;;;;5058052;28;19921;-74
2023/07/18 05:21:23;;;;;;;;;;;;;;;;;;5058149;28;19967;-75
2023/07/18 05:24:10;;;;;;;;;;;;;;;;;;5059881;28;19926;-74
2023/07/18 05:26:56;;;;;;;;;;;;;;;;;;5055649;28;19929;-74
2023/07/18 05:29:43;;;;;;;;;;;;;;;;;;5055487;28;19927;-74
2023/07/18 05:32:29;;;;;;;;;;;;;;;;;;5057382;28;19983;-75
2023/07/18 05:35:16;;;;;;;;;;;;;;;;;;5052295;28;20454;-74
2023/07/18 05:38:02;;;;;;;;;;;;;;;;;;5070438;28;19924;-75
2023/07/18 05:40:49;;;;;;;;;;;;;;;;;;5056672;28;20615;-75
2023/07/18 05:43:35;;;;;;;;;;;;;;;;;;5056971;28;19920;-74
2023/07/18 05:46:22;;;;;;;;;;;;;;;;;;5053991;28;19925;-73
2023/07/18 05:49:08;;;;;;;;;;;;;;;;;;5056600;28;19927;-75
2023/07/18 05:51:54;;;;;;;;;;;;;;;;;;5050532;28;20422;-75
2023/07/18 05:54:41;;;;;;;;;;;;;;;;;;5059999;28;19927;-75
2023/07/18 05:57:28;;;;;;;;;;;;;;;;;;5061704;28;19924;-75
2023/07/18 06:00:14;;;;;;;;;;;;;;;;;;5052616;28;19927;-75
2023/07/18 06:03:01;;;;;;;;;;;;;;;;;;5060330;28;20368;-74
2023/07/18 06:05:47;;;;;;;;;;;;;;;;;;5063804;28;19920;-74
2023/07/18 06:08:33;;;;;;;;;;;;;;;;;;5054591;28;19931;-74
2023/07/18 06:11:20;;;;;;;;;;;;;;;;;;5061691;28;19920;-75
2023/07/18 06:14:06;;;;;;;;;;;;;;;;;;5065841;28;19924;-74
2023/07/18 06:16:53;;;;;;;;;;;;;;;;;;5064454;28;19923;-74
2023/07/18 06:19:39;;;;;;;;;;;;;;;;;;5063140;28;19921;-74
2023/07/18 06:22:26;;;;;;;;;;;;;;;;;;5053004;28;20264;-76
2023/07/18 06:25:15;;;;;;;;;;;;;;;;;;5063407;28;19917;-76
2023/07/18 06:28:01;;;;;;;;;;;;;;;;;;5064821;28;19935;-75
2023/07/18 06:30:49;;;;;;;;;;;;;;;;;;5067309;28;20372;-75
2023/07/18 06:33:36;;;;;;;;;;;;;;;;;;5062106;28;20384;-75
2023/07/18 06:36:23;;;;;;;;;;;;;;;;;;5062530;28;19925;-76
2023/07/18 06:39:11;;;;;;;;;;;;;;;;;;5062860;28;19920;-75
2023/07/18 06:41:58;;;;;;;;;;;;;;;;;;5058814;28;20388;-75
2023/07/18 06:44:44;;;;;;;;;;;;;;;;;;5061171;28;19951;-75
2023/07/18 06:47:31;;;;;;;;;;;;;;;;;;5058363;28;19929;-76
2023/07/18 06:50:17;;;;;;;;;;;;;;;;;;5052785;28;19994;-76
2023/07/18 06:53:04;;;;;;;;;;;;;;;;;;5057623;28;19925;-75
2023/07/18 06:55:51;;;;;;;;;;;;;;;;;;5056909;28;19920;-75
2023/07/18 06:58:37;;;;;;;;;;;;;;;;;;5062395;28;19927;-75
2023/07/18 07:01:23;;;;;;;;;;;;;;;;;;5074473;28;19920;-75
2023/07/18 07:04:10;;;;;;;;;;;;;;;;;;5060542;28;19932;-74
2023/07/18 07:06:57;;;;;;;;;;;;;;;;;;5067149;28;19937;-75
2023/07/18 07:09:44;;;;;;;;;;;;;;;;;;5046068;28;19924;-75
2023/07/18 07:12:32;;;;;;;;;;;;;;;;;;5058126;28;19927;-75
2023/07/18 07:15:18;;;;;;;;;;;;;;;;;;5062711;28;20411;-75
2023/07/18 07:18:05;;;;;;;;;;;;;;;;;;5063230;28;19948;-75
2023/07/18 07:20:51;;;;;;;;;;;;;;;;;;5064172;28;19928;-74
2023/07/18 07:23:38;;;;;;;;;;;;;;;;;;5059347;28;19915;-75
2023/07/18 07:26:24;;;;;;;;;;;;;;;;;;5062981;28;19924;-75
2023/07/18 07:29:12;;;;;;;;;;;;;;;;;;5064299;28;19931;-75
2023/07/18 07:31:59;;;;;;;;;;;;;;;;;;5058585;28;19921;-74
2023/07/18 07:34:45;;;;;;;;;;;;;;;;;;5060335;28;19920;-75
2023/07/18 07:37:32;;;;;;;;;;;;;;;;;;5061860;28;19917;-75
2023/07/18 07:40:19;;;;;;;;;;;;;;;;;;5059905;28;20392;-76
2023/07/18 07:43:06;;;;;;;;;;;;;;;;;;5060290;28;19917;-79
2023/07/18 07:45:52;;;;;;;;;;;;;;;;;;5046343;28;19921;-77
2023/07/18 07:48:40;;;;;;;;;;;;;;;;;;5059797;28;20408;-79
2023/07/18 07:51:27;;;;;;;;;;;;;;;;;;5058785;28;19923;-77
2023/07/18 07:54:13;;;;;;;;;;;;;;;;;;5058233;28;19942;-82
2023/07/18 07:57:00;;;;;;;;;;;;;;;;;;5061820;28;19921;-83
2023/07/18 07:59:47;;;;;;;;;;;;;;;;;;5060125;28;19924;-82
2023/07/18 08:02:34;;;;;;;;;;;;;;;;;;5062388;28;19932;-81
2023/07/18 08:05:21;;;;;;;;;;;;;;;;;;5062107;28;19921;-84
2023/07/18 08:08:08;;;;;;;;;;;;;;;;;;5063869;28;19924;-84
2023/07/18 08:10:54;;;;;;;;;;;;;;;;;;5062508;28;19920;-87
2023/07/18 08:13:41;;;;;;;;;;;;;;;;;;5047849;28;19924;-86
2023/07/18 08:16:28;;;;;;;;;;;;;;;;;;5022072;28;19920;-85
2023/07/18 08:19:14;;;;;;;;;;;;;;;;;;5062063;28;19917;-85
2023/07/18 08:22:01;;;;;;;;;;;;;;;;;;5064801;28;19926;-87
2023/07/18 08:24:47;;;;;;;;;;;;;;;;;;5070850;28;20493;-86
2023/07/18 08:27:35;;;;;;;;;;;;;;;;;;5063957;28;19935;-87
2023/07/18 08:30:22;;;;;;;;;;;;;;;;;;5062959;28;20303;-86
2023/07/18 08:33:09;;;;;;;;;;;;;;;;;;5061527;28;20273;-86
2023/07/18 08:35:56;;;;;;;;;;;;;;;;;;5060907;28;19927;-86
2023/07/18 08:38:49;;;;;;;;;;;;;;;;;;5072323;28;19920;-85
2023/07/18 08:41:35;;;;;;;;;;;;;;;;;;5075456;28;19943;-86
2023/07/18 08:44:22;;;;;;;;;;;;;;;;;;5061900;28;19916;-86
2023/07/18 08:47:08;;;;;;;;;;;;;;;;;;5061636;28;19929;-85
2023/07/18 08:49:55;;;;;;;;;;;;;;;;;;5062265;28;20202;-85
2023/07/18 08:52:41;;;;;;;;;;;;;;;;;;5056829;28;19924;-85
2023/07/18 08:55:29;;;;;;;;;;;;;;;;;;5062294;28;19921;-85
2023/07/18 08:58:16;;;;;;;;;;;;;;;;;;5061970;28;19920;-86
2023/07/18 09:01:02;;;;;;;;;;;;;;;;;;5062823;28;19925;-86
2023/07/18 09:03:49;;;;;;;;;;;;;;;;;;5060214;28;19921;-86
2023/07/18 09:06:36;;;;;;;;;;;;;;;;;;5064592;28;19920;-85
2023/07/18 09:09:22;;;;;;;;;;;;;;;;;;5058684;28;19931;-86
2023/07/18 09:12:10;;;;;;;;;;;;;;;;;;5065179;28;19926;-85
2023/07/18 09:14:57;;;;;;;;;;;;;;;;;;5064524;28;20435;-87
2023/07/18 09:17:43;;;;;;;;;;;;;;;;;;5064395;28;19923;-85
2023/07/18 09:20:30;;;;;;;;;;;;;;;;;;5064036;28;20003;-85
2023/07/18 09:23:17;;;;;;;;;;;;;;;;;;5062237;28;19935;-84
2023/07/18 09:26:04;;;;;;;;;;;;;;;;;;5059990;28;20277;-85
2023/07/18 09:28:51;;;;;;;;;;;;;;;;;;5062735;28;19928;-85
2023/07/18 09:31:38;;;;;;;;;;;;;;;;;;5063482;28;19927;-86
2023/07/18 09:34:24;;;;;;;;;;;;;;;;;;5059009;28;19928;-86
2023/07/18 09:37:11;;;;;;;;;;;;;;;;;;5060246;28;19925;-85
2023/07/18 09:39:57;;;;;;;;;;;;;;;;;;5062469;28;19949;-85
2023/07/18 09:42:44;;;;;;;;;;;;;;;;;;5062947;28;19931;-85
2023/07/18 09:45:31;;;;;;;;;;;;;;;;;;5066507;28;19927;-86
2023/07/18 09:48:18;;;;;;;;;;;;;;;;;;5061908;28;19929;-86
2023/07/18 09:51:04;;;;;;;;;;;;;;;;;;5060068;28;20380;-86
2023/07/18 09:53:51;;;;;;;;;;;;;;;;;;5063174;28;19927;-86
2023/07/18 09:56:39;;;;;;;;;;;;;;;;;;5046297;28;19925;-85
2023/07/18 09:59:26;;;;;;;;;;;;;;;;;;5047005;28;20601;-86
2023/07/18 10:02:12;;;;;;;;;;;;;;;;;;5070511;28;19931;-86
2023/07/18 10:04:59;;;;;;;;;;;;;;;;;;5062535;28;20233;-84
2023/07/18 10:07:45;;;;;;;;;;;;;;;;;;5058441;28;19935;-85
2023/07/18 10:10:32;;;;;;;;;;;;;;;;;;5064986;28;20360;-87
2023/07/18 10:13:19;;;;;;;;;;;;;;;;;;5060179;28;19920;-81
2023/07/18 10:16:06;;;;;;;;;;;;;;;;;;5062717;28;19920;-85
2023/07/18 10:18:53;;;;;;;;;;;;;;;;;;5065766;28;19930;-86
2023/07/18 10:21:40;;;;;;;;;;;;;;;;;;5052989;28;19924;-85
2023/07/18 10:24:31;;;;;;;;;;;;;;;;;;5055581;28;19916;-84
2023/07/18 10:27:18;;;;;;;;;;;;;;;;;;5062025;28;19925;-86
2023/07/18 10:30:04;;;;;;;;;;;;;;;;;;5052567;28;19921;-86
2023/07/18 10:32:51;;;;;;;;;;;;;;;;;;5056939;28;19923;-84
2023/07/18 10:35:37;;;;;;;;;;;;;;;;;;5063482;28;20376;-85
2023/07/18 10:38:24;;;;;;;;;;;;;;;;;;5058066;28;19912;-85
2023/07/18 10:41:10;;;;;;;;;;;;;;;;;;5062289;28;19920;-85
2023/07/18 10:43:57;;;;;;;;;;;;;;;;;;5067803;28;20376;-85
2023/07/18 10:46:44;;;;;;;;;;;;;;;;;;5060999;28;19939;-85
2023/07/18 10:49:31;;;;;;;;;;;;;;;;;;5066746;28;19923;-85
2023/07/18 10:52:17;;;;;;;;;;;;;;;;;;5062969;28;19916;-86
2023/07/18 10:55:07;;;;;;;;;;;;;;;;;;5067470;28;20287;-85
2023/07/18 10:57:53;;;;;;;;;;;;;;;;;;5066934;28;19931;-85
2023/07/18 11:00:40;;;;;;;;;;;;;;;;;;5052297;28;19936;-85
2023/07/18 11:03:27;;;;;;;;;;;;;;;;;;5068254;28;19920;-85
2023/07/18 11:06:16;;;;;;;;;;;;;;;;;;5066168;28;19927;-84
2023/07/18 11:09:04;;;;;;;;;;;;;;;;;;5066685;28;19962;-85
2023/07/18 11:11:50;;;;;;;;;;;;;;;;;;5063278;28;19920;-85
2023/07/18 11:14:37;;;;;;;;;;;;;;;;;;5064836;28;19923;-85
2023/07/18 11:17:23;;;;;;;;;;;;;;;;;;5048130;28;19925;-85
2023/07/18 11:20:10;;;;;;;;;;;;;;;;;;5065544;28;19927;-85
2023/07/18 11:22:56;;;;;;;;;;;;;;;;;;5056839;28;19920;-85
2023/07/18 11:25:43;;;;;;;;;;;;;;;;;;5071189;28;19924;-85
2023/07/18 11:28:29;;;;;;;;;;;;;;;;;;5064714;28;19931;-85
2023/07/18 11:31:16;;;;;;;;;;;;;;;;;;5062403;28;19928;-85
2023/07/18 11:34:02;;;;;;;;;;;;;;;;;;5054347;28;20288;-85
2023/07/18 11:36:50;;;;;;;;;;;;;;;;;;5067113;28;20578;-85
2023/07/18 11:39:36;;;;;;;;;;;;;;;;;;5062087;28;19928;-85
2023/07/18 11:42:23;;;;;;;;;;;;;;;;;;5059203;28;19939;-76
2023/07/18 11:45:09;;;;;;;;;;;;;;;;;;5065124;28;21498;-76
2023/07/18 11:47:56;;;;;;;;;;;;;;;;;;5061615;28;20405;-75
2023/07/18 11:50:44;;;;;;;;;;;;;;;;;;5071547;28;19920;-76
2023/07/18 11:53:31;;;;;;;;;;;;;;;;;;5060289;28;19924;-76
2023/07/18 11:56:18;;;;;;;;;;;;;;;;;;5063903;28;20014;-76
2023/07/18 11:59:04;;;;;;;;;;;;;;;;;;5060611;28;19927;-75
2023/07/18 12:01:51;;;;;;;;;;;;;;;;;;5061555;28;19917;-76
2023/07/18 12:04:38;;;;;;;;;;;;;;;;;;5059566;28;19920;-75
2023/07/18 12:07:25;;;;;;;;;;;;;;;;;;5061995;28;19935;-76
2023/07/18 12:10:15;;;;;;;;;;;;;;;;;;5060856;28;19930;-78
2023/07/18 12:13:02;;;;;;;;;;;;;;;;;;5066236;28;20316;-75
2023/07/18 12:15:48;;;;;;;;;;;;;;;;;;5053071;28;19917;-77
2023/07/18 12:18:35;;;;;;;;;;;;;;;;;;5055405;28;19933;-76
2023/07/18 12:21:21;;;;;;;;;;;;;;;;;;5062942;28;19924;-76
2023/07/18 12:24:08;;;;;;;;;;;;;;;;;;5061365;28;20435;-76
2023/07/18 12:26:54;;;;;;;;;;;;;;;;;;5057729;28;19932;-78
2023/07/18 12:29:42;;;;;;;;;;;;;;;;;;5053027;28;19925;-75
2023/07/18 12:32:28;;;;;;;;;;;;;;;;;;5045898;28;19920;-75
2023/07/18 12:35:15;;;;;;;;;;;;;;;;;;5058801;28;19925;-76
2023/07/18 12:38:02;;;;;;;;;;;;;;;;;;5061216;28;19917;-75
2023/07/18 12:40:48;;;;;;;;;;;;;;;;;;5059566;28;19917;-75
2023/07/18 12:43:35;;;;;;;;;;;;;;;;;;5044659;28;19927;-74
2023/07/18 12:46:26;;;;;;;;;;;;;;;;;;5057832;28;19928;-76
2023/07/18 12:49:15;;;;;;;;;;;;;;;;;;5058170;28;20414;-76
2023/07/18 12:52:02;;;;;;;;;;;;;;;;;;5062847;28;19921;-75
2023/07/18 12:54:48;;;;;;;;;;;;;;;;;;5057384;28;19920;-75
2023/07/18 12:57:35;;;;;;;;;;;;;;;;;;5058072;28;19927;-75
2023/07/18 13:00:21;;;;;;;;;;;;;;;;;;5057813;28;20351;-75
2023/07/18 13:03:08;;;;;;;;;;;;;;;;;;5062849;28;19916;-75
2023/07/18 13:05:54;;;;;;;;;;;;;;;;;;5060359;28;19920;-75
2023/07/18 13:08:41;;;;;;;;;;;;;;;;;;5051547;28;19940;-74
2023/07/18 13:11:27;;;;;;;;;;;;;;;;;;5045003;28;20474;-76
2023/07/18 13:14:14;;;;;;;;;;;;;;;;;;5065686;28;19924;-77
2023/07/18 13:17:01;;;;;;;;;;;;;;;;;;5060765;28;19920;-76
2023/07/18 13:19:47;;;;;;;;;;;;;;;;;;5059161;28;19927;-76
2023/07/18 13:22:34;;;;;;;;;;;;;;;;;;5054410;28;19920;-76
2023/07/18 13:25:20;;;;;;;;;;;;;;;;;;5061341;28;19931;-76
2023/07/18 13:28:07;;;;;;;;;;;;;;;;;;5062525;28;20821;-76
2023/07/18 13:30:53;;;;;;;;;;;;;;;;;;5058321;28;19920;-76
2023/07/18 13:33:40;;;;;;;;;;;;;;;;;;5060380;28;19927;-74
2023/07/18 13:36:26;;;;;;;;;;;;;;;;;;5052770;28;19939;-75
2023/07/18 13:39:13;;;;;;;;;;;;;;;;;;5061656;28;19917;-75
2023/07/18 13:41:59;;;;;;;;;;;;;;;;;;5058230;28;20368;-76
2023/07/18 13:44:45;;;;;;;;;;;;;;;;;;5058120;28;19921;-76
2023/07/18 13:47:32;;;;;;;;;;;;;;;;;;5044612;28;19940;-79
2023/07/18 13:50:18;;;;;;;;;;;;;;;;;;5060172;28;19921;-75
2023/07/18 13:53:05;;;;;;;;;;;;;;;;;;5061200;28;19921;-77
2023/07/18 13:55:51;;;;;;;;;;;;;;;;;;5056492;28;20343;-74
2023/07/18 13:58:38;;;;;;;;;;;;;;;;;;5057768;28;19924;-76
2023/07/18 14:01:24;;;;;;;;;;;;;;;;;;5060286;28;19921;-77
2023/07/18 14:04:11;;;;;;;;;;;;;;;;;;5054151;28;19991;-77
2023/07/18 14:06:58;;;;;;;;;;;;;;;;;;5060889;28;20291;-81
2023/07/18 14:09:44;;;;;;;;;;;;;;;;;;5059023;28;19928;-75
2023/07/18 14:12:31;;;;;;;;;;;;;;;;;;5057870;28;19917;-77
2023/07/18 14:15:17;;;;;;;;;;;;;;;;;;5059919;28;20356;-76
2023/07/18 14:18:04;;;;;;;;;;;;;;;;;;5060447;28;19932;-75
2023/07/18 14:20:50;;;;;;;;;;;;;;;;;;5059785;28;19921;-76
2023/07/18 14:23:37;;;;;;;;;;;;;;;;;;5060302;28;19927;-76
2023/07/18 14:26:23;;;;;;;;;;;;;;;;;;5061088;28;19933;-79
2023/07/18 14:29:10;;;;;;;;;;;;;;;;;;5064850;28;19931;-79
2023/07/18 14:31:56;;;;;;;;;;;;;;;;;;5075501;28;19924;-74
2023/07/18 14:34:43;;;;;;;;;;;;;;;;;;5058914;28;19925;-73
2023/07/18 14:37:29;;;;;;;;;;;;;;;;;;5061158;28;20452;-75
2023/07/18 14:40:16;;;;;;;;;;;;;;;;;;5060525;28;19921;-74
2023/07/18 14:43:02;;;;;;;;;;;;;;;;;;5062661;28;19928;-74
2023/07/18 14:45:52;;;;;;;;;;;;;;;;;;5064662;28;19931;-74
2023/07/18 14:48:38;;;;;;;;;;;;;;;;;;5057078;28;19935;-75
2023/07/18 14:51:25;;;;;;;;;;;;;;;;;;5048841;28;20487;-74
2023/07/18 14:54:11;;;;;;;;;;;;;;;;;;5048543;28;19924;-74
2023/07/18 14:56:58;;;;;;;;;;;;;;;;;;5062368;28;19920;-74
2023/07/18 14:59:44;;;;;;;;;;;;;;;;;;5061874;28;19913;-74
2023/07/18 15:02:31;;;;;;;;;;;;;;;;;;5044903;28;20292;-74
2023/07/18 15:05:17;;;;;;;;;;;;;;;;;;5064595;28;19928;-75
2023/07/18 15:08:04;;;;;;;;;;;;;;;;;;5063947;28;19947;-74
2023/07/18 15:10:50;;;;;;;;;;;;;;;;;;5074745;28;19924;-74
2023/07/18 15:13:37;;;;;;;;;;;;;;;;;;5059813;28;19927;-74
2023/07/18 15:16:23;;;;;;;;;;;;;;;;;;5063529;28;19920;-74
2023/07/18 15:19:10;;;;;;;;;;;;;;;;;;5060785;28;19940;-74
2023/07/18 15:21:56;;;;;;;;;;;;;;;;;;5064129;28;19926;-74
2023/07/18 15:24:43;;;;;;;;;;;;;;;;;;5057710;28;19921;-73
2023/07/18 15:27:29;;;;;;;;;;;;;;;;;;5063536;28;19928;-74
2023/07/18 15:30:16;;;;;;;;;;;;;;;;;;5058611;28;19916;-75
2023/07/18 15:33:02;;;;;;;;;;;;;;;;;;5060828;28;19927;-74
2023/07/18 15:35:49;;;;;;;;;;;;;;;;;;5052086;28;19920;-74
2023/07/18 15:38:35;;;;;;;;;;;;;;;;;;5055767;28;19920;-75
2023/07/18 15:41:21;;;;;;;;;;;;;;;;;;5059608;28;19912;-75
2023/07/18 15:44:08;;;;;;;;;;;;;;;;;;5053807;28;19942;-74
2023/07/18 15:46:54;;;;;;;;;;;;;;;;;;5064153;28;20376;-75
2023/07/18 15:49:42;;;;;;;;;;;;;;;;;;5065460;28;19943;-74
2023/07/18 15:52:28;;;;;;;;;;;;;;;;;;5046143;28;19917;-74
2023/07/18 15:55:15;;;;;;;;;;;;;;;;;;5057664;28;20000;-74
2023/07/18 15:58:01;;;;;;;;;;;;;;;;;;5057500;28;20453;-74
2023/07/18 16:00:49;;;;;;;;;;;;;;;;;;5067034;28;19930;-74
2023/07/18 16:03:35;;;;;;;;;;;;;;;;;;5041651;28;19925;-75
2023/07/18 16:06:22;;;;;;;;;;;;;;;;;;5057410;28;20521;-75
2023/07/18 16:09:09;;;;;;;;;;;;;;;;;;5061367;28;19930;-79
2023/07/18 16:11:55;;;;;;;;;;;;;;;;;;5049017;28;19921;-77
2023/07/18 16:14:42;;;;;;;;;;;;;;;;;;5059060;28;19924;-82
2023/07/18 16:17:28;;;;;;;;;;;;;;;;;;5057752;28;19920;-81
2023/07/18 16:20:15;;;;;;;;;;;;;;;;;;5058404;28;20603;-79
2023/07/18 16:23:04;;;;;;;;;;;;;;;;;;5057227;28;19920;-80
2023/07/18 16:25:50;;;;;;;;;;;;;;;;;;5047808;28;19934;-79
2023/07/18 16:28:37;;;;;;;;;;;;;;;;;;5062319;28;20287;-80
2023/07/18 16:31:24;;;;;;;;;;;;;;;;;;5058947;28;19924;-86
2023/07/18 16:34:11;;;;;;;;;;;;;;;;;;5074547;28;19920;-84
2023/07/18 16:36:57;;;;;;;;;;;;;;;;;;5071074;28;20388;-84
2023/07/18 16:39:44;;;;;;;;;;;;;;;;;;5061376;28;19923;-85
2023/07/18 16:42:30;;;;;;;;;;;;;;;;;;5056986;28;19920;-77
2023/07/18 16:45:17;;;;;;;;;;;;;;;;;;5061422;28;19924;-80
2023/07/18 16:48:05;;;;;;;;;;;;;;;;;;5060107;28;20280;-75
2023/07/18 16:50:51;;;;;;;;;;;;;;;;;;5060654;28;20003;-76
2023/07/18 16:53:38;;;;;;;;;;;;;;;;;;5055832;28;19921;-76
2023/07/18 16:56:24;;;;;;;;;;;;;;;;;;5059372;28;19924;-76
2023/07/18 16:59:11;;;;;;;;;;;;;;;;;;5066320;28;19962;-75
2023/07/18 17:01:57;;;;;;;;;;;;;;;;;;5057624;28;19916;-76
2023/07/18 17:04:46;;;;;;;;;;;;;;;;;;5035793;28;19985;-76
2023/07/18 17:07:34;;;;;;;;;;;;;;;;;;5058462;28;19916;-75
2023/07/18 17:10:21;;;;;;;;;;;;;;;;;;5035184;28;19921;-77
2023/07/18 17:13:07;;;;;;;;;;;;;;;;;;5046988;28;19916;-76
2023/07/18 17:15:54;;;;;;;;;;;;;;;;;;5060031;28;20606;-75
2023/07/18 17:18:40;;;;;;;;;;;;;;;;;;5059643;28;19919;-76
2023/07/18 17:21:27;;;;;;;;;;;;;;;;;;5061438;28;19927;-76
2023/07/18 17:24:13;;;;;;;;;;;;;;;;;;5054712;28;19920;-76
2023/07/18 17:27:02;;;;;;;;;;;;;;;;;;5061383;28;19990;-75
2023/07/18 17:29:49;;;;;;;;;;;;;;;;;;5045738;28;19929;-75
2023/07/18 17:32:35;;;;;;;;;;;;;;;;;;5045493;28;20381;-76
2023/07/18 17:35:22;;;;;;;;;;;;;;;;;;5059418;28;19931;-77
2023/07/18 17:38:08;;;;;;;;;;;;;;;;;;5061638;28;19921;-77
2023/07/18 17:40:54;;;;;;;;;;;;;;;;;;5055462;28;20392;-76
2023/07/18 17:43:41;;;;;;;;;;;;;;;;;;5058886;28;19927;-77
2023/07/18 17:46:27;;;;;;;;;;;;;;;;;;5071486;28;19925;-76
2023/07/18 17:49:14;;;;;;;;;;;;;;;;;;5061589;28;19935;-77
2023/07/18 17:52:00;;;;;;;;;;;;;;;;;;5056529;28;19916;-77
2023/07/18 17:54:47;;;;;;;;;;;;;;;;;;5062972;28;19920;-77
2023/07/18 17:57:33;;;;;;;;;;;;;;;;;;5060764;28;20273;-77
2023/07/18 18:00:20;;;;;;;;;;;;;;;;;;5071290;28;19924;-78
2023/07/18 18:03:07;;;;;;;;;;;;;;;;;;5058716;28;19927;-78
2023/07/18 18:05:53;;;;;;;;;;;;;;;;;;5048098;28;19920;-77
2023/07/18 18:08:40;;;;;;;;;;;;;;;;;;5061469;28;19929;-77
2023/07/18 18:11:27;;;;;;;;;;;;;;;;;;5059039;28;19924;-77
2023/07/18 18:14:13;;;;;;;;;;;;;;;;;;5058195;28;19916;-77
2023/07/18 18:17:00;;;;;;;;;;;;;;;;;;5061306;28;19928;-76
2023/07/18 18:19:46;;;;;;;;;;;;;;;;;;5057092;28;19924;-77
2023/07/18 18:22:33;;;;;;;;;;;;;;;;;;5055683;28;20411;-76
2023/07/18 18:25:19;;;;;;;;;;;;;;;;;;5054896;28;19923;-77
2023/07/18 18:28:06;;;;;;;;;;;;;;;;;;5059577;28;19928;-77
2023/07/18 18:30:52;;;;;;;;;;;;;;;;;;5043457;28;19917;-75
2023/07/18 18:33:39;;;;;;;;;;;;;;;;;;5055800;28;19928;-80
2023/07/18 18:36:25;;;;;;;;;;;;;;;;;;5054764;28;19940;-82
2023/07/18 18:39:12;;;;;;;;;;;;;;;;;;5046827;28;20300;-80
2023/07/18 18:41:59;;;;;;;;;;;;;;;;;;5053578;28;20443;-81
2023/07/18 18:44:45;;;;;;;;;;;;;;;;;;5056725;28;19917;-81
2023/07/18 18:47:32;;;;;;;;;;;;;;;;;;5053004;28;20924;-82
2023/07/18 18:50:18;;;;;;;;;;;;;;;;;;5056754;28;19928;-81
2023/07/18 18:53:05;;;;;;;;;;;;;;;;;;5062185;28;19925;-79
2023/07/18 18:55:51;;;;;;;;;;;;;;;;;;5053349;28;19916;-81
2023/07/18 18:58:38;;;;;;;;;;;;;;;;;;5053676;28;20764;-81